Arvada, WY

7:29 PM MDT on July 29, 2015 (GMT -0600)
Gillette-Campbell County | | Change Station
CLOSE
Current Station
Airport
Location: Gillette,
Elevation: 4364 ft
Nearby Weather Stations

Elev 4364 ft 44.34 °N, 105.54 °W | Updated 36 minutes ago

Clear
Clear
79 °F
Feels Like 79 °F
N
4
Wind Variable Wind from Variable

Today
High -- | Low -- °F
--% Chance of Precip.
Yesterday
High -- | Low -- °F
Precip. -- in
5:47 AM 8:34 PM
Waxing Gibbous, 97% visible
Pressure 30.09 in
Visibility 10.0 miles
Clouds Clear
Dew Point 32 °F
Humidity 18%
Rainfall 0.00 in
Snow Depth Not available.
UV 1 out of 12
Pollen 5.50 out of 12
Air Quality Not available.
Flu Activity Not available.
METAR KGCC 300053Z AUTO VRB03KT 10SM CLR 26/00 A3021 RMK AO2 SLP189 T02610000

More Conditions Fewer Conditions

Pressure 30.09 in
Visibility 10.0 miles
Clouds Clear
Dew Point 32 °F
Humidity 18%
Rainfall 0.00 in
Snow Depth Not available.
UV 1 out of 12
Pollen 5.50 out of 12
Air Quality Not available.
Flu Activity Not available.
METAR KGCC 300053Z AUTO VRB03KT 10SM CLR 26/00 A3021 RMK AO2 SLP189 T02610000

More Conditions Fewer Conditions

10-Day Weather Forecast

×

Almanac

Astronomy

Jul. 29, 2015 Rise Set
Actual Time
Civil Twilight
Nautical Twilight
Astronomical Twilight
Moon
Length of Visible Light
Length of Day
Tomorrow will be .
, % of the Moon is Illuminated

Today's Extremes

State Highs State Lows

Community

WunderPhotos

Upload Photos

1,842,245 photos uploaded!

WunderBlogs® & News

Nearby

Air Quality

  Air Quality AQ Index Pollutant
Not available.

Snow Depth

Station Depth Elevation

Earthquake Activity

City Distance Mag. Time & Date
Minimum magnitude displayed is 2.5.

Coastal Water Temperatures

Place Temperature

Stations

Nearby Weather Stations

Station Location Temp. Windchill Dew Point Humidity Wind Precip. Elev Updated Type